createdAt,value
2022-08-25T00:02:12.378Z,3.75
2022-08-25T00:05:34.486Z,3.33
2022-08-25T00:08:59.773Z,3.17
2022-08-25T00:12:22.031Z,3.53
2022-08-25T00:15:47.074Z,4.10
2022-08-25T00:19:14.202Z,4.50
2022-08-25T00:22:36.474Z,4.00
2022-08-25T00:25:58.708Z,3.72
2022-08-25T00:29:21.020Z,3.33
2022-08-25T00:32:43.592Z,3.10
2022-08-25T00:36:15.762Z,3.40
2022-08-25T00:39:39.169Z,3.47
2022-08-25T00:43:01.950Z,3.58
2022-08-25T00:46:41.893Z,3.88
2022-08-25T00:50:07.383Z,4.23
2022-08-25T00:53:32.191Z,4.63
2022-08-25T00:56:58.639Z,4.50
2022-08-25T01:00:38.615Z,4.55
2022-08-25T01:04:00.831Z,3.83
2022-08-25T01:07:23.907Z,3.80
2022-08-25T01:10:46.997Z,3.47
2022-08-25T01:14:10.817Z,3.55
2022-08-25T01:17:50.340Z,4.10
2022-08-25T01:21:13.136Z,3.65
2022-08-25T01:24:44.884Z,3.25
2022-08-25T01:28:07.354Z,3.70
2022-08-25T01:31:30.729Z,3.28
2022-08-25T01:34:52.874Z,3.22
2022-08-25T01:38:15.778Z,3.28
2022-08-25T01:41:51.456Z,3.75
2022-08-25T01:45:15.085Z,3.30
2022-08-25T01:48:37.268Z,3.70
2022-08-25T01:52:07.732Z,3.60
2022-08-25T01:55:30.712Z,3.50
2022-08-25T01:58:53.671Z,3.70
2022-08-25T02:02:16.848Z,3.97
2022-08-25T02:05:40.723Z,3.63
2022-08-25T02:09:08.167Z,3.97
2022-08-25T02:12:32.166Z,3.10
2022-08-25T02:15:56.789Z,3.95
2022-08-25T02:19:20.812Z,3.85
2022-08-25T02:22:43.471Z,3.97
2022-08-25T02:26:16.944Z,3.88
2022-08-25T02:29:41.227Z,3.38
2022-08-25T02:33:04.302Z,3.60
2022-08-25T02:36:26.932Z,3.72
2022-08-25T02:39:49.060Z,3.90
2022-08-25T02:43:11.136Z,3.60
2022-08-25T02:46:33.271Z,3.30
2022-08-25T02:49:55.729Z,3.35
2022-08-25T02:53:18.529Z,3.00
2022-08-25T02:56:42.456Z,3.20
2022-08-25T03:00:06.988Z,3.45
2022-08-25T03:03:29.080Z,3.13
2022-08-25T03:06:51.126Z,3.60
2022-08-25T03:10:16.200Z,3.25
2022-08-25T03:13:38.688Z,3.60
2022-08-25T03:17:00.761Z,3.58
2022-08-25T03:20:25.409Z,3.10
2022-08-25T03:23:48.400Z,2.45
2022-08-25T03:27:10.413Z,2.75
2022-08-25T03:30:34.154Z,2.72
2022-08-25T03:33:56.395Z,3.58
2022-08-25T03:37:42.718Z,3.33
2022-08-25T03:41:25.629Z,3.42
2022-08-25T03:44:50.371Z,3.20
2022-08-25T03:48:14.260Z,3.45
2022-08-25T03:51:40.506Z,3.92
2022-08-25T03:55:04.964Z,2.92
2022-08-25T03:58:27.683Z,3.47
2022-08-25T04:01:54.776Z,3.38
2022-08-25T04:05:17.717Z,3.25
2022-08-25T04:08:40.250Z,2.80
2022-08-25T04:12:02.367Z,3.42
2022-08-25T04:15:28.066Z,3.25
2022-08-25T04:18:54.905Z,3.33
2022-08-25T04:22:17.794Z,3.45
2022-08-25T04:25:43.062Z,3.60
2022-08-25T04:29:10.354Z,4.47
2022-08-25T04:33:02.023Z,4.10
2022-08-25T04:36:27.441Z,4.20
2022-08-25T04:40:14.678Z,4.55
2022-08-25T04:43:47.345Z,4.50
2022-08-25T04:51:31.845Z,4.15
2022-08-25T04:55:05.380Z,4.43
2022-08-25T04:58:27.603Z,4.53
2022-08-25T05:02:00.577Z,3.83
2022-08-25T05:05:28.752Z,4.65
2022-08-25T05:08:51.758Z,3.75
2022-08-25T05:12:13.831Z,3.58
2022-08-25T05:15:55.098Z,3.13
2022-08-25T05:19:17.517Z,3.40
2022-08-25T05:22:39.648Z,3.60
2022-08-25T05:26:07.588Z,4.28
2022-08-25T05:29:29.666Z,3.28
2022-08-25T05:32:51.740Z,3.45
2022-08-25T05:36:20.935Z,3.55
2022-08-25T05:39:44.207Z,2.85
2022-08-25T05:43:06.323Z,2.78
2022-08-25T05:46:28.330Z,2.97
2022-08-25T05:49:54.068Z,2.88
2022-08-25T05:53:16.426Z,2.88
2022-08-25T05:56:38.561Z,3.35
2022-08-25T06:00:00.822Z,2.97
2022-08-25T06:03:23.025Z,3.15
2022-08-25T06:06:45.711Z,3.03
2022-08-25T06:10:16.504Z,2.90
2022-08-25T06:13:40.805Z,3.13
2022-08-25T06:17:04.998Z,3.05
2022-08-25T06:20:29.537Z,3.50
2022-08-25T06:23:56.228Z,3.33
2022-08-25T06:27:18.861Z,2.78
2022-08-25T06:30:44.491Z,2.63
2022-08-25T06:34:08.715Z,2.83
2022-08-25T06:37:33.525Z,3.00
2022-08-25T06:41:06.624Z,3.88
2022-08-25T06:44:29.858Z,3.25
2022-08-25T06:47:52.801Z,2.80
2022-08-25T06:51:21.148Z,2.88
2022-08-25T06:54:43.260Z,3.10
2022-08-25T06:58:12.440Z,3.35
2022-08-25T07:01:37.333Z,3.22
2022-08-25T07:05:06.450Z,2.65
2022-08-25T07:08:36.576Z,3.38
2022-08-25T07:12:04.770Z,2.88
2022-08-25T07:15:28.687Z,3.25
2022-08-25T07:18:56.688Z,3.70
2022-08-25T07:26:36.206Z,3.40
2022-08-25T07:31:04.535Z,3.47
2022-08-25T07:35:19.470Z,3.58
2022-08-25T07:43:29.506Z,2.80
2022-08-25T08:07:43.321Z,2.85
2022-08-25T08:11:54.440Z,3.40
2022-08-25T08:16:03.027Z,3.17
2022-08-25T08:19:45.117Z,3.53
2022-08-25T08:23:29.820Z,2.55
2022-08-25T08:26:58.827Z,3.33
2022-08-25T08:30:25.886Z,2.83
2022-08-25T08:33:50.359Z,2.70
2022-08-25T08:37:12.934Z,3.20
2022-08-25T08:41:23.130Z,3.28
2022-08-25T08:44:55.404Z,2.50
2022-08-25T08:48:56.983Z,2.67
2022-08-25T08:52:55.016Z,2.78
2022-08-25T09:00:22.325Z,2.85
2022-08-25T09:04:35.863Z,2.97
2022-08-25T09:08:35.786Z,2.17
2022-08-25T09:12:51.986Z,2.10
2022-08-25T09:16:55.547Z,1.55
2022-08-25T09:25:58.427Z,2.20
2022-08-25T09:30:01.419Z,1.70
2022-08-25T09:33:57.733Z,2.00
2022-08-25T09:43:10.112Z,1.85
2022-08-25T09:52:00.378Z,1.90
2022-08-25T09:56:14.780Z,1.88
2022-08-25T10:14:34.466Z,3.63
2022-08-25T10:22:44.858Z,1.90
2022-08-25T10:27:33.563Z,1.70
2022-08-25T10:32:01.016Z,2.05
2022-08-25T10:36:07.329Z,1.80
2022-08-25T10:40:19.185Z,2.03
2022-08-25T10:44:34.126Z,2.20
2022-08-25T10:48:13.570Z,2.35
2022-08-25T10:52:09.205Z,2.10
2022-08-25T10:55:40.362Z,2.17
2022-08-25T10:59:23.029Z,2.20
2022-08-25T11:03:19.930Z,2.00
2022-08-25T11:06:56.681Z,2.17
2022-08-25T11:10:30.950Z,1.90
2022-08-25T11:14:11.012Z,2.13
2022-08-25T11:17:57.405Z,2.83
2022-08-25T11:21:29.216Z,2.30
2022-08-25T11:29:19.542Z,2.47
2022-08-25T11:36:18.823Z,2.47
2022-08-25T11:40:31.484Z,1.92
2022-08-25T11:44:18.145Z,2.30
2022-08-25T11:47:49.803Z,2.58
2022-08-25T11:51:54.596Z,2.50
2022-08-25T11:56:13.015Z,2.58
2022-08-25T11:59:50.549Z,2.78
2022-08-25T12:03:45.729Z,2.22
2022-08-25T12:11:12.795Z,2.22
2022-08-25T12:15:10.668Z,2.42
2022-08-25T12:18:34.277Z,2.67
2022-08-25T12:27:21.069Z,2.60
2022-08-25T12:31:55.570Z,2.38
2022-08-25T12:35:48.256Z,2.58
2022-08-25T12:39:36.695Z,2.03
2022-08-25T12:43:33.969Z,2.38
2022-08-25T12:47:29.926Z,2.28
2022-08-25T12:52:07.628Z,2.90
2022-08-25T12:55:35.152Z,2.60
2022-08-25T12:59:03.784Z,2.40
2022-08-25T13:02:53.572Z,2.80
2022-08-25T13:07:04.238Z,2.63
2022-08-25T13:14:44.233Z,3.03
2022-08-25T13:18:27.270Z,2.42
2022-08-25T13:21:50.176Z,2.70
2022-08-25T13:25:18.289Z,2.65
2022-08-25T13:29:03.562Z,2.90
2022-08-25T13:32:43.201Z,2.95
2022-08-25T13:36:58.851Z,2.40
2022-08-25T13:40:38.048Z,2.95
2022-08-25T13:44:26.122Z,2.92
2022-08-25T13:47:56.121Z,2.67
2022-08-25T14:07:35.378Z,2.70
2022-08-25T14:11:55.462Z,2.70
2022-08-25T14:15:48.915Z,3.08
2022-08-25T14:20:04.456Z,2.78
2022-08-25T14:23:38.020Z,2.70
2022-08-25T14:27:11.869Z,2.72
2022-08-25T14:34:56.853Z,3.00
2022-08-25T14:38:55.009Z,2.88
2022-08-25T14:42:29.804Z,2.90
2022-08-25T14:46:16.080Z,3.00
2022-08-25T14:49:59.627Z,2.63
2022-08-25T14:53:23.575Z,2.53
2022-08-25T14:57:11.208Z,2.75
2022-08-25T15:00:41.275Z,2.50
2022-08-25T15:04:26.890Z,2.90
2022-08-25T15:08:13.205Z,2.85
2022-08-25T15:11:47.967Z,2.83
2022-08-25T15:15:21.270Z,3.03
2022-08-25T15:18:45.808Z,2.80
2022-08-25T15:22:19.048Z,2.60
2022-08-25T15:25:49.075Z,2.70
2022-08-25T15:29:20.574Z,2.92
2022-08-25T15:33:18.156Z,2.70
2022-08-25T15:36:43.703Z,2.65
2022-08-25T15:40:37.696Z,2.72
2022-08-25T15:45:41.639Z,2.42
2022-08-25T15:48:50.126Z,3.28
2022-08-25T15:52:58.083Z,2.63
2022-08-25T15:57:45.916Z,3.00
2022-08-25T16:01:51.428Z,2.70
2022-08-25T16:11:29.505Z,3.15
2022-08-25T16:16:35.489Z,2.70
2022-08-25T16:20:33.307Z,2.88
2022-08-25T16:24:28.183Z,2.58
2022-08-25T16:33:14.276Z,2.47
2022-08-25T16:36:41.938Z,2.40
2022-08-25T16:40:09.017Z,2.70
2022-08-25T16:43:37.010Z,3.00
2022-08-25T16:47:02.152Z,3.03
2022-08-25T16:50:24.955Z,3.25
2022-08-25T16:54:06.550Z,2.85
2022-08-25T16:57:29.166Z,2.70
2022-08-25T17:00:56.970Z,2.85
2022-08-25T17:09:24.325Z,2.90
2022-08-25T17:12:57.311Z,3.15
2022-08-25T17:16:36.427Z,2.85
2022-08-25T17:20:04.652Z,3.08
2022-08-25T17:23:27.801Z,2.55
2022-08-25T17:26:51.759Z,3.13
2022-08-25T17:30:16.926Z,3.10
2022-08-25T17:33:45.853Z,2.78
2022-08-25T17:37:11.971Z,3.38
2022-08-25T17:40:35.966Z,2.63
2022-08-25T17:44:02.923Z,3.03
2022-08-25T17:47:27.596Z,2.88
2022-08-25T17:50:50.804Z,2.70
2022-08-25T17:54:15.316Z,2.63
2022-08-25T17:57:40.193Z,2.80
2022-08-25T18:01:06.623Z,3.10
2022-08-25T18:04:33.477Z,2.72
2022-08-25T18:07:57.425Z,3.20
2022-08-25T18:11:21.529Z,3.30
2022-08-25T18:14:46.081Z,3.00
2022-08-25T18:18:10.217Z,3.20
2022-08-25T18:21:36.858Z,3.30
2022-08-25T18:25:00.292Z,3.13
2022-08-25T18:28:22.574Z,3.50
2022-08-25T18:31:51.894Z,4.35
2022-08-25T18:35:29.902Z,3.42
2022-08-25T18:39:57.625Z,3.80
2022-08-25T18:52:43.628Z,3.55
2022-08-25T18:56:59.532Z,3.47
2022-08-25T19:01:25.908Z,3.08
2022-08-25T19:05:59.005Z,4.80
2022-08-25T19:10:34.670Z,4.93
2022-08-25T19:19:58.683Z,3.70
2022-08-25T19:24:18.858Z,3.60
2022-08-25T19:32:37.141Z,3.33
2022-08-25T19:36:28.249Z,3.35
2022-08-25T19:39:57.436Z,3.72
2022-08-25T19:43:23.326Z,4.72
2022-08-25T19:46:46.687Z,4.10
2022-08-25T19:50:27.122Z,4.18
2022-08-25T19:53:54.802Z,4.10
2022-08-25T19:57:28.294Z,4.35
2022-08-25T20:01:04.608Z,4.00
2022-08-25T20:04:31.012Z,4.72
2022-08-25T20:07:56.549Z,4.30
2022-08-25T20:11:19.534Z,3.88
2022-08-25T20:14:41.609Z,4.20
2022-08-25T20:18:03.785Z,5.28
2022-08-25T20:21:27.050Z,3.70
2022-08-25T20:24:56.039Z,3.90
2022-08-25T20:28:23.026Z,4.25
2022-08-25T20:31:48.605Z,4.28
2022-08-25T20:35:14.552Z,4.13
2022-08-25T20:38:38.042Z,4.28
2022-08-25T20:42:00.518Z,3.70
2022-08-25T20:45:23.461Z,3.85
2022-08-25T20:48:45.770Z,3.78
2022-08-25T20:52:08.649Z,3.95
2022-08-25T20:55:30.671Z,3.80
2022-08-25T20:58:52.750Z,3.95
2022-08-25T21:02:15.192Z,3.65
2022-08-25T21:05:44.028Z,3.97
2022-08-25T21:09:13.763Z,3.92
2022-08-25T21:12:39.780Z,3.83
2022-08-25T21:16:03.123Z,4.28
2022-08-25T21:19:30.061Z,4.03
2022-08-25T21:22:53.285Z,3.85
2022-08-25T21:26:21.140Z,3.50
2022-08-25T21:29:44.504Z,3.90
2022-08-25T21:33:17.064Z,3.92
2022-08-25T21:36:42.035Z,3.88
2022-08-25T21:40:06.939Z,3.80
2022-08-25T21:43:30.677Z,3.90
2022-08-25T21:46:54.290Z,3.75
2022-08-25T21:50:16.919Z,3.35
2022-08-25T21:53:39.431Z,3.90
2022-08-25T21:57:05.870Z,4.07
2022-08-25T22:00:27.902Z,4.13
2022-08-25T22:03:50.148Z,4.30
2022-08-25T22:07:12.268Z,4.20
2022-08-25T22:10:34.719Z,4.10
2022-08-25T22:13:57.279Z,4.03
2022-08-25T22:17:24.139Z,3.85
2022-08-25T22:20:46.954Z,4.00
2022-08-25T22:24:09.568Z,4.30
2022-08-25T22:27:31.843Z,4.30
2022-08-25T22:30:54.283Z,4.55
2022-08-25T22:34:16.674Z,4.15
2022-08-25T22:37:39.238Z,4.53
2022-08-25T22:41:02.700Z,3.90
2022-08-25T22:44:26.134Z,3.70
2022-08-25T22:47:48.716Z,4.05
2022-08-25T22:51:15.157Z,3.90
2022-08-25T22:54:37.652Z,3.67
2022-08-25T22:57:59.765Z,4.20
2022-08-25T23:01:22.987Z,3.83
2022-08-25T23:04:45.037Z,4.25
2022-08-25T23:12:19.073Z,4.28
2022-08-25T23:15:47.891Z,4.57
2022-08-25T23:19:13.892Z,4.28
2022-08-25T23:22:36.997Z,4.28
2022-08-25T23:25:59.034Z,4.50
2022-08-25T23:29:32.823Z,4.82
2022-08-25T23:33:15.666Z,4.32
2022-08-25T23:36:45.059Z,4.97
2022-08-25T23:40:13.059Z,4.63
2022-08-25T23:43:42.449Z,4.68
2022-08-25T23:47:07.053Z,4.95
2022-08-25T23:50:29.123Z,4.82
2022-08-25T23:53:52.043Z,4.85
2022-08-25T23:57:16.449Z,4.70
